Merryville, Louisiana
Current Conditions -  °F | °C
As of 10:15 PM on Sunday 21 Dec 2014 (Local Time) from KDRI Reporting Station
Haze Haze  
Wind Chill: 49°   Ceiling: 400
Heat Index: 49°   Visibility: 5mi
Dew Point: 48°   Wind: 0mph
Humidity: 95%   Direction: NA
Pressure: 29.96"   Gusts: NA
Location:  30.75°N, 93.54°W
Report Text: KDRI 220415Z AUTO 00000KT 5SM BR OVC004 10/09 A2996 RMK AO2 T00960088
Loading
Personal Weather Stations






























Interactive Weather Map New forecast layout! Learn more

10-Day Weather Forecast

Advertisements
Track Severe Weather on mobile